createdAt,value
2023-04-24T00:00:47.249Z,100558.29
2023-04-24T00:02:01.396Z,100559.94
2023-04-24T00:03:04.322Z,100561.15
2023-04-24T00:04:07.684Z,100557.03
2023-04-24T00:05:09.586Z,100554.89
2023-04-24T00:06:11.281Z,100555.52
2023-04-24T00:07:13.414Z,100549.66
2023-04-24T00:08:15.091Z,100549.56
2023-04-24T00:09:16.803Z,100556.02
2023-04-24T00:10:19.246Z,100556.40
2023-04-24T00:11:20.918Z,100563.08
2023-04-24T00:12:38.623Z,100565.21
2023-04-24T00:13:40.812Z,100563.65
2023-04-24T00:14:42.284Z,100565.21
2023-04-24T00:15:43.867Z,100568.83
2023-04-24T00:16:45.557Z,100564.45
2023-04-24T00:17:47.998Z,100563.48
2023-04-24T00:18:49.605Z,100563.95
2023-04-24T00:19:51.664Z,100567.02
2023-04-24T00:20:53.224Z,100564.73
2023-04-24T00:21:55.071Z,100563.86
2023-04-24T00:22:56.534Z,100565.41
2023-04-24T00:23:58.012Z,100564.20
2023-04-24T00:24:59.694Z,100562.77
2023-04-24T00:26:01.166Z,100567.86
2023-04-24T00:27:02.953Z,100563.08
2023-04-24T00:28:04.753Z,100563.97
2023-04-24T00:29:06.245Z,100564.34
2023-04-24T00:30:08.216Z,100563.58
2023-04-24T00:31:09.797Z,100563.40
2023-04-24T00:32:11.883Z,100562.70
2023-04-24T00:33:13.525Z,100563.64
2023-04-24T00:34:14.977Z,100564.77
2023-04-24T00:35:16.786Z,100563.76
2023-04-24T00:36:20.852Z,100562.74
2023-04-24T00:37:22.432Z,100560.96
2023-04-24T00:38:25.010Z,100563.44
2023-04-24T00:39:26.579Z,100560.16
2023-04-24T00:40:28.672Z,100560.84
2023-04-24T00:41:30.760Z,100556.97
2023-04-24T00:42:32.457Z,100561.02
2023-04-24T00:43:34.117Z,100558.38
2023-04-24T00:44:35.760Z,100556.63
2023-04-24T00:45:37.416Z,100555.66
2023-04-24T00:46:39.107Z,100554.27
2023-04-24T00:47:42.120Z,100554.04
2023-04-24T00:48:44.213Z,100554.35
2023-04-24T00:49:46.280Z,100551.34
2023-04-24T00:50:47.838Z,100547.14
2023-04-24T00:51:51.487Z,100546.73
2023-04-24T00:52:53.235Z,100548.61
2023-04-24T00:53:55.007Z,100549.36
2023-04-24T00:54:56.487Z,100550.30
2023-04-24T00:55:58.265Z,100552.03
2023-04-24T00:57:00.805Z,100549.34
2023-04-24T00:58:02.521Z,100549.94
2023-04-24T00:59:04.889Z,100548.52
2023-04-24T01:00:12.023Z,100547.38
2023-04-24T01:01:14.526Z,100547.40
2023-04-24T01:02:16.383Z,100548.35
2023-04-24T01:03:18.848Z,100548.52
2023-04-24T01:04:21.295Z,100550.88
2023-04-24T01:05:23.403Z,100548.48
2023-04-24T01:06:28.297Z,100550.75
2023-04-24T01:07:30.095Z,100553.79
2023-04-24T01:08:31.732Z,100549.48
2023-04-24T01:09:33.459Z,100550.67
2023-04-24T01:10:36.782Z,100543.92
2023-04-24T01:11:38.440Z,100547.13
2023-04-24T01:12:40.373Z,100549.35
2023-04-24T01:13:41.974Z,100550.54
2023-04-24T01:14:45.582Z,100548.53
2023-04-24T01:15:47.808Z,100549.94
2023-04-24T01:16:49.399Z,100553.33
2023-04-24T01:17:51.344Z,100554.32
2023-04-24T01:18:52.937Z,100552.80
2023-04-24T01:19:57.015Z,100550.01
2023-04-24T01:21:06.661Z,100546.13
2023-04-24T01:22:12.107Z,100548.59
2023-04-24T01:23:13.895Z,100549.04
2023-04-24T01:24:15.691Z,100547.52
2023-04-24T01:25:17.527Z,100545.27
2023-04-24T01:26:20.525Z,100543.34
2023-04-24T01:27:22.262Z,100542.23
2023-04-24T01:28:24.424Z,100540.56
2023-04-24T01:29:25.940Z,100541.21
2023-04-24T01:32:00.255Z,100541.36
2023-04-24T01:33:02.824Z,100549.29
2023-04-24T01:34:04.568Z,100547.27
2023-04-24T01:35:07.056Z,100549.11
2023-04-24T01:36:11.184Z,100552.05
2023-04-24T01:37:12.831Z,100552.88
2023-04-24T01:38:14.794Z,100549.12
2023-04-24T01:39:17.074Z,100549.27
2023-04-24T01:40:18.625Z,100550.94
2023-04-24T01:41:20.755Z,100547.71
2023-04-24T01:42:22.860Z,100551.80
2023-04-24T01:43:24.863Z,100548.10
2023-04-24T01:44:27.009Z,100548.77
2023-04-24T01:45:28.604Z,100549.55
2023-04-24T01:46:31.884Z,100549.92
2023-04-24T01:47:34.068Z,100544.91
2023-04-24T01:48:35.873Z,100543.27
2023-04-24T01:49:41.775Z,100544.50
2023-04-24T01:50:43.404Z,100543.73
2023-04-24T01:51:47.241Z,100540.84
2023-04-24T01:52:49.033Z,100536.83
2023-04-24T01:53:50.901Z,100535.84
2023-04-24T01:54:52.826Z,100535.54
2023-04-24T01:55:54.436Z,100531.73
2023-04-24T01:56:56.089Z,100529.55
2023-04-24T01:58:00.019Z,100529.10
2023-04-24T01:59:03.624Z,100528.20
2023-04-24T02:00:07.471Z,100530.69
2023-04-24T02:01:26.689Z,100530.71
2023-04-24T02:02:29.271Z,100528.29
2023-04-24T02:03:32.297Z,100528.15
2023-04-24T02:04:33.912Z,100525.80
2023-04-24T02:05:35.443Z,100522.42
2023-04-24T02:06:38.460Z,100519.55
2023-04-24T02:07:40.235Z,100519.19
2023-04-24T02:08:42.051Z,100516.02
2023-04-24T02:09:43.678Z,100513.25
2023-04-24T02:10:46.300Z,100517.58
2023-04-24T02:11:47.951Z,100516.33
2023-04-24T02:12:49.425Z,100517.11
2023-04-24T02:13:51.850Z,100521.30
2023-04-24T02:14:53.383Z,100518.98
2023-04-24T02:15:54.814Z,100519.07
2023-04-24T02:16:56.234Z,100519.42
2023-04-24T02:17:58.193Z,100516.98
2023-04-24T02:18:59.880Z,100516.52
2023-04-24T02:20:01.337Z,100510.30
2023-04-24T02:21:03.025Z,100510.46
2023-04-24T02:22:04.734Z,100513.10
2023-04-24T02:23:06.262Z,100513.86
2023-04-24T02:24:07.704Z,100511.43
2023-04-24T02:25:09.503Z,100510.80
2023-04-24T02:26:11.406Z,100503.48
2023-04-24T02:27:13.120Z,100503.18
2023-04-24T02:28:14.774Z,100500.80
2023-04-24T02:29:16.351Z,100499.83
2023-04-24T02:30:17.869Z,100500.98
2023-04-24T02:31:20.530Z,100499.84
2023-04-24T02:32:23.216Z,100497.50
2023-04-24T02:33:24.923Z,100495.57
2023-04-24T02:34:26.597Z,100491.66
2023-04-24T02:35:28.119Z,100494.60
2023-04-24T02:36:30.666Z,100493.58
2023-04-24T02:37:32.471Z,100494.02
2023-04-24T02:38:34.069Z,100488.93
2023-04-24T02:39:35.681Z,100492.11
2023-04-24T02:40:37.159Z,100485.52
2023-04-24T02:41:38.581Z,100483.84
2023-04-24T02:42:40.106Z,100484.96
2023-04-24T02:43:41.750Z,100488.48
2023-04-24T02:44:43.265Z,100491.20
2023-04-24T02:45:44.975Z,100492.63
2023-04-24T02:46:46.453Z,100492.77
2023-04-24T02:47:47.926Z,100484.48
2023-04-24T02:48:49.355Z,100487.86
2023-04-24T02:49:50.893Z,100483.60
2023-04-24T02:50:52.371Z,100484.27
2023-04-24T02:51:53.987Z,100482.16
2023-04-24T02:52:55.460Z,100483.00
2023-04-24T02:53:57.030Z,100479.31
2023-04-24T02:54:58.521Z,100481.65
2023-04-24T02:56:00.148Z,100483.73
2023-04-24T02:57:01.778Z,100477.58
2023-04-24T02:58:03.495Z,100476.96
2023-04-24T02:59:05.127Z,100481.91
2023-04-24T03:00:07.594Z,100480.52
2023-04-24T03:01:10.512Z,100478.73
2023-04-24T03:02:12.246Z,100477.77
2023-04-24T03:03:14.437Z,100475.10
2023-04-24T03:04:17.077Z,100472.86
2023-04-24T03:05:18.901Z,100468.63
2023-04-24T03:06:21.300Z,100467.42
2023-04-24T03:07:24.463Z,100465.55
2023-04-24T03:08:25.948Z,100466.05
2023-04-24T03:09:27.511Z,100466.30
2023-04-24T03:10:29.277Z,100469.11
2023-04-24T03:11:30.713Z,100464.62
2023-04-24T03:12:32.755Z,100465.77
2023-04-24T03:13:34.516Z,100463.01
2023-04-24T03:14:35.974Z,100462.23
2023-04-24T03:15:37.639Z,100456.35
2023-04-24T03:16:39.146Z,100458.45
2023-04-24T03:17:42.111Z,100461.05
2023-04-24T03:18:43.690Z,100465.95
2023-04-24T03:19:45.734Z,100461.85
2023-04-24T03:20:47.964Z,100464.29
2023-04-24T03:21:50.364Z,100467.16
2023-04-24T03:22:52.650Z,100465.84
2023-04-24T03:23:55.387Z,100464.80
2023-04-24T03:24:57.070Z,100467.16
2023-04-24T03:25:58.761Z,100471.38
2023-04-24T03:27:00.598Z,100471.75
2023-04-24T03:28:25.495Z,100472.73
2023-04-24T03:29:34.899Z,100472.67
2023-04-24T03:30:37.400Z,100468.64
2023-04-24T03:31:39.863Z,100470.98
2023-04-24T03:32:41.422Z,100471.90
2023-04-24T03:33:44.360Z,100473.16
2023-04-24T03:34:46.000Z,100476.33
2023-04-24T03:35:49.127Z,100472.91
2023-04-24T03:36:50.774Z,100472.99
2023-04-24T03:37:52.305Z,100469.88
2023-04-24T03:39:14.579Z,100468.96
2023-04-24T03:40:22.746Z,100467.95
2023-04-24T03:41:24.628Z,100466.90
2023-04-24T03:42:30.658Z,100469.73
2023-04-24T03:43:33.754Z,100469.08
2023-04-24T03:44:36.498Z,100465.29
2023-04-24T03:45:38.108Z,100467.33
2023-04-24T03:46:39.808Z,100466.52
2023-04-24T03:47:41.987Z,100466.84
2023-04-24T03:48:43.594Z,100469.48
2023-04-24T03:49:45.482Z,100468.52
2023-04-24T03:50:47.090Z,100466.29
2023-04-24T03:51:48.624Z,100467.93
2023-04-24T03:52:53.724Z,100466.27
2023-04-24T03:54:07.613Z,100464.31
2023-04-24T03:55:13.172Z,100468.05
2023-04-24T03:56:18.310Z,100465.42
2023-04-24T03:57:19.859Z,100463.36
2023-04-24T03:58:31.699Z,100462.81
2023-04-24T03:59:33.170Z,100468.05
2023-04-24T04:00:48.036Z,100466.56
2023-04-24T04:02:18.996Z,100464.34
2023-04-24T04:03:21.236Z,100465.45
2023-04-24T04:04:23.953Z,100466.29
2023-04-24T04:05:25.930Z,100466.36
2023-04-24T04:06:27.656Z,100465.02
2023-04-24T04:07:30.352Z,100467.92
2023-04-24T04:08:32.048Z,100468.47
2023-04-24T04:09:34.355Z,100470.00
2023-04-24T04:10:36.055Z,100466.42
2023-04-24T04:11:39.948Z,100468.84
2023-04-24T04:12:41.417Z,100466.19
2023-04-24T04:13:43.612Z,100468.42
2023-04-24T04:14:45.140Z,100465.38
2023-04-24T04:15:46.809Z,100465.21
2023-04-24T04:16:48.404Z,100465.32
2023-04-24T04:17:50.083Z,100466.90
2023-04-24T04:18:51.559Z,100467.86
2023-04-24T04:19:53.176Z,100472.37
2023-04-24T04:20:54.757Z,100472.33
2023-04-24T04:21:56.508Z,100474.02
2023-04-24T04:23:08.961Z,100475.52
2023-04-24T04:24:21.105Z,100475.31
2023-04-24T04:25:23.453Z,100472.48
2023-04-24T04:26:25.856Z,100472.79
2023-04-24T04:27:35.613Z,100473.39
2023-04-24T04:28:40.397Z,100474.00
2023-04-24T04:29:42.627Z,100475.45
2023-04-24T04:30:45.922Z,100474.38
2023-04-24T04:31:47.538Z,100476.30
2023-04-24T04:32:49.939Z,100479.44
2023-04-24T04:33:51.531Z,100480.08
2023-04-24T04:34:54.037Z,100481.48
2023-04-24T04:35:57.033Z,100484.90
2023-04-24T04:37:02.306Z,100486.84
2023-04-24T04:38:43.226Z,100486.59
2023-04-24T04:39:56.192Z,100483.55
2023-04-24T04:41:00.027Z,100477.09
2023-04-24T04:42:04.122Z,100472.66
2023-04-24T04:43:13.696Z,100469.36
2023-04-24T04:44:18.866Z,100473.27
2023-04-24T04:45:20.956Z,100475.85
2023-04-24T04:46:42.867Z,100478.63
2023-04-24T04:47:52.996Z,100481.62
2023-04-24T04:48:54.792Z,100480.34
2023-04-24T04:49:56.309Z,100483.45
2023-04-24T04:50:59.885Z,100479.35
2023-04-24T04:52:01.925Z,100477.02
2023-04-24T04:53:03.916Z,100474.38
2023-04-24T04:54:08.742Z,100474.21
2023-04-24T04:55:13.573Z,100474.20
2023-04-24T04:56:38.042Z,100470.99
2023-04-24T04:57:40.314Z,100474.89
2023-04-24T04:58:41.773Z,100473.37
2023-04-24T04:59:46.758Z,100475.65
2023-04-24T05:00:53.576Z,100476.48
2023-04-24T05:02:02.002Z,100473.72
2023-04-24T05:03:19.042Z,100470.42
2023-04-24T05:04:23.243Z,100472.02
2023-04-24T05:05:24.976Z,100470.61
2023-04-24T05:06:26.490Z,100469.44
2023-04-24T05:07:28.115Z,100470.59
2023-04-24T05:08:30.161Z,100469.61
2023-04-24T05:09:31.623Z,100468.20
2023-04-24T05:10:37.317Z,100469.30
2023-04-24T05:11:39.009Z,100469.83
2023-04-24T05:12:40.670Z,100465.46
2023-04-24T05:13:42.658Z,100461.95
2023-04-24T05:14:48.546Z,100457.31
2023-04-24T05:15:50.256Z,100458.98
2023-04-24T05:16:51.825Z,100461.17
2023-04-24T05:17:56.779Z,100456.70
2023-04-24T05:18:59.618Z,100456.01
2023-04-24T05:20:05.725Z,100454.27
2023-04-24T05:21:08.206Z,100456.02
2023-04-24T05:22:11.873Z,100450.89
2023-04-24T05:23:20.527Z,100455.05
2023-04-24T05:24:24.534Z,100460.34
2023-04-24T05:25:52.445Z,100454.17
2023-04-24T05:26:55.860Z,100450.63
2023-04-24T05:28:00.740Z,100447.83
2023-04-24T05:29:03.012Z,100448.36
2023-04-24T05:30:05.296Z,100448.40
2023-04-24T05:31:06.777Z,100447.83
2023-04-24T05:32:08.150Z,100449.11
2023-04-24T05:33:10.208Z,100450.13
2023-04-24T05:34:11.619Z,100446.83
2023-04-24T05:35:16.206Z,100451.42
2023-04-24T05:36:17.981Z,100454.09
2023-04-24T05:37:19.699Z,100448.64
2023-04-24T05:38:21.805Z,100449.30
2023-04-24T05:39:25.275Z,100451.30
2023-04-24T05:40:26.872Z,100451.63
2023-04-24T05:41:28.479Z,100455.09
2023-04-24T05:42:29.969Z,100453.71
2023-04-24T05:43:32.430Z,100456.42
2023-04-24T05:44:34.131Z,100449.45
2023-04-24T05:45:36.489Z,100448.45
2023-04-24T05:46:38.078Z,100450.19
2023-04-24T05:47:39.938Z,100449.52
2023-04-24T05:48:41.463Z,100445.09
2023-04-24T05:49:43.192Z,100446.55
2023-04-24T05:50:45.097Z,100447.40
2023-04-24T05:51:47.165Z,100446.34
2023-04-24T05:52:49.461Z,100448.41
2023-04-24T05:53:59.449Z,100446.11
2023-04-24T05:55:01.113Z,100447.83
2023-04-24T05:56:04.067Z,100446.21
2023-04-24T05:57:08.053Z,100447.54
2023-04-24T05:58:22.616Z,100446.73
2023-04-24T05:59:24.647Z,100449.29
2023-04-24T06:00:27.153Z,100449.94
2023-04-24T06:01:33.985Z,100448.86
2023-04-24T06:02:42.140Z,100454.35
2023-04-24T06:03:45.859Z,100452.96
2023-04-24T06:04:48.253Z,100452.56
2023-04-24T06:05:51.602Z,100453.27
2023-04-24T06:06:56.203Z,100452.11
2023-04-24T06:07:57.789Z,100450.73
2023-04-24T06:09:02.511Z,100449.05
2023-04-24T06:10:04.613Z,100449.36
2023-04-24T06:11:11.222Z,100450.84
2023-04-24T06:12:13.807Z,100447.23
2023-04-24T06:13:32.040Z,100446.81
2023-04-24T06:14:55.789Z,100445.23
2023-04-24T06:16:03.065Z,100439.16
2023-04-24T06:17:09.566Z,100438.16
2023-04-24T06:18:15.457Z,100437.70
2023-04-24T06:19:17.076Z,100439.80
2023-04-24T06:20:18.823Z,100441.39
2023-04-24T06:21:20.647Z,100438.58
2023-04-24T06:22:22.137Z,100439.14
2023-04-24T06:23:23.873Z,100434.88
2023-04-24T06:24:28.823Z,100433.77
2023-04-24T06:25:30.931Z,100433.89
2023-04-24T06:26:32.642Z,100434.36
2023-04-24T06:27:35.609Z,100434.36
2023-04-24T06:28:37.933Z,100433.67
2023-04-24T06:29:39.384Z,100432.41
2023-04-24T06:30:41.990Z,100434.23
2023-04-24T06:31:43.404Z,100436.16
2023-04-24T06:32:45.723Z,100433.81
2023-04-24T06:33:49.060Z,100433.57
2023-04-24T06:34:53.885Z,100429.64
2023-04-24T06:35:55.458Z,100425.73
2023-04-24T06:36:57.124Z,100420.49
2023-04-24T06:37:58.567Z,100424.86
2023-04-24T06:39:00.305Z,100426.35
2023-04-24T06:40:01.715Z,100426.88
2023-04-24T06:41:05.330Z,100427.23
2023-04-24T06:42:06.899Z,100426.31
2023-04-24T06:43:09.951Z,100427.36
2023-04-24T06:44:11.637Z,100431.45
2023-04-24T06:45:13.054Z,100433.10
2023-04-24T06:46:14.738Z,100432.55
2023-04-24T06:47:16.251Z,100430.73
2023-04-24T06:48:17.687Z,100430.39
2023-04-24T06:49:19.567Z,100429.05
2023-04-24T06:50:21.171Z,100426.36
2023-04-24T06:51:26.964Z,100423.24
2023-04-24T06:52:28.434Z,100418.83
2023-04-24T06:53:29.924Z,100423.07
2023-04-24T06:54:31.636Z,100426.55
2023-04-24T06:55:33.128Z,100425.34
2023-04-24T06:56:34.816Z,100419.05
2023-04-24T06:57:36.383Z,100418.91
2023-04-24T06:58:37.923Z,100421.73
2023-04-24T06:59:39.512Z,100414.19
2023-04-24T07:00:40.948Z,100412.27
2023-04-24T07:01:42.402Z,100411.81
2023-04-24T07:02:43.909Z,100409.39
2023-04-24T07:03:45.827Z,100407.88
2023-04-24T07:04:48.072Z,100411.31
2023-04-24T07:05:49.672Z,100416.27
2023-04-24T07:06:51.710Z,100415.25
2023-04-24T07:07:53.536Z,100414.73
2023-04-24T07:08:56.284Z,100417.77
2023-04-24T07:09:57.964Z,100415.55
2023-04-24T07:11:00.149Z,100415.10
2023-04-24T07:12:01.771Z,100412.60
2023-04-24T07:13:03.429Z,100411.83
2023-04-24T07:14:04.862Z,100412.27
2023-04-24T07:15:08.148Z,100413.06
2023-04-24T07:16:10.140Z,100414.91
2023-04-24T07:17:13.500Z,100407.87
2023-04-24T07:18:15.056Z,100408.20
2023-04-24T07:19:16.399Z,100399.67
2023-04-24T07:20:17.978Z,100400.30
2023-04-24T07:21:19.431Z,100402.76
2023-04-24T07:22:21.165Z,100399.95
2023-04-24T07:23:22.564Z,100399.41
2023-04-24T07:24:26.783Z,100397.00
2023-04-24T07:25:28.591Z,100394.08
2023-04-24T07:26:31.030Z,100394.45
2023-04-24T07:27:33.233Z,100396.64
2023-04-24T07:28:34.704Z,100392.82
2023-04-24T07:29:36.082Z,100390.17
2023-04-24T07:30:37.808Z,100387.99
2023-04-24T07:31:39.317Z,100388.59
2023-04-24T07:32:40.819Z,100387.20
2023-04-24T07:33:42.271Z,100387.16
2023-04-24T07:34:43.829Z,100389.15
2023-04-24T07:35:45.760Z,100389.05
2023-04-24T07:36:47.662Z,100383.64
2023-04-24T07:37:49.224Z,100380.67
2023-04-24T07:38:50.673Z,100381.54
2023-04-24T07:39:52.195Z,100377.48
2023-04-24T07:40:53.896Z,100376.05
2023-04-24T07:41:55.284Z,100377.88
2023-04-24T07:42:56.738Z,100377.52
2023-04-24T07:43:58.849Z,100378.64
2023-04-24T07:45:00.383Z,100374.55
2023-04-24T07:46:02.213Z,100373.25
2023-04-24T07:47:03.771Z,100371.20
2023-04-24T07:48:05.880Z,100369.81
2023-04-24T07:49:13.690Z,100370.73
2023-04-24T07:50:15.980Z,100373.19
2023-04-24T07:51:17.451Z,100375.43
2023-04-24T07:52:18.865Z,100377.06
2023-04-24T07:53:20.378Z,100371.67
2023-04-24T07:54:21.795Z,100374.23
2023-04-24T07:55:24.724Z,100371.23
2023-04-24T07:56:31.653Z,100376.23
2023-04-24T07:57:33.123Z,100377.06
2023-04-24T07:58:35.168Z,100376.02
2023-04-24T07:59:36.614Z,100371.17
2023-04-24T08:00:38.256Z,100370.00
2023-04-24T08:01:40.404Z,100371.55
2023-04-24T08:02:41.937Z,100372.66
2023-04-24T08:03:44.081Z,100367.46
2023-04-24T08:04:45.909Z,100365.84
2023-04-24T08:05:47.668Z,100361.50
2023-04-24T08:06:49.447Z,100360.92
2023-04-24T08:07:50.980Z,100360.29
2023-04-24T08:08:52.398Z,100361.09
2023-04-24T08:09:54.184Z,100366.50
2023-04-24T08:10:55.618Z,100367.68
2023-04-24T08:11:57.307Z,100366.50
2023-04-24T08:12:58.776Z,100369.52
2023-04-24T08:14:00.166Z,100370.20
2023-04-24T08:15:01.662Z,100372.10
2023-04-24T08:16:03.155Z,100369.27
2023-04-24T08:17:04.671Z,100366.52
2023-04-24T08:18:06.285Z,100363.29
2023-04-24T08:19:08.002Z,100362.37
2023-04-24T08:20:13.849Z,100363.87
2023-04-24T08:21:17.446Z,100366.67
2023-04-24T08:22:19.312Z,100366.32
2023-04-24T08:23:20.752Z,100364.22
2023-04-24T08:24:22.627Z,100361.48
2023-04-24T08:25:24.965Z,100361.78
2023-04-24T08:26:26.498Z,100361.45
2023-04-24T08:27:27.934Z,100359.13
2023-04-24T08:28:29.600Z,100358.26
2023-04-24T08:29:31.088Z,100360.31
2023-04-24T08:30:32.554Z,100358.06
2023-04-24T08:31:34.154Z,100355.11
2023-04-24T08:32:36.981Z,100355.46
2023-04-24T08:33:38.401Z,100353.98
2023-04-24T08:34:39.815Z,100359.89
2023-04-24T08:35:41.280Z,100359.73
2023-04-24T08:36:47.011Z,100365.67
2023-04-24T08:37:49.611Z,100366.51
2023-04-24T08:38:51.071Z,100363.27
2023-04-24T08:39:53.135Z,100362.92
2023-04-24T08:40:55.100Z,100361.77
2023-04-24T08:41:56.518Z,100360.40
2023-04-24T08:42:59.810Z,100357.65
2023-04-24T08:44:02.732Z,100357.83
2023-04-24T08:45:04.649Z,100352.02
2023-04-24T08:46:10.954Z,100355.80
2023-04-24T08:47:15.873Z,100354.23
2023-04-24T08:48:29.681Z,100354.88
2023-04-24T08:49:33.653Z,100358.15
2023-04-24T08:50:35.261Z,100356.95
2023-04-24T08:51:38.097Z,100360.39
2023-04-24T08:52:39.871Z,100358.45
2023-04-24T08:53:42.020Z,100360.13
2023-04-24T08:54:45.871Z,100363.96
2023-04-24T08:55:48.787Z,100364.14
2023-04-24T08:56:53.843Z,100364.55
2023-04-24T08:57:56.179Z,100361.67
2023-04-24T08:58:58.107Z,100364.37
2023-04-24T09:00:00.730Z,100361.39
2023-04-24T09:01:03.475Z,100359.15
2023-04-24T09:02:05.836Z,100355.56
2023-04-24T09:03:07.555Z,100354.42
2023-04-24T09:04:11.361Z,100356.61
2023-04-24T09:05:14.298Z,100354.11
2023-04-24T09:06:18.555Z,100357.54
2023-04-24T09:07:24.619Z,100357.33
2023-04-24T09:08:28.388Z,100358.88
2023-04-24T09:09:33.154Z,100356.10
2023-04-24T09:10:35.325Z,100357.63
2023-04-24T09:11:36.997Z,100354.96
2023-04-24T09:12:38.453Z,100356.05
2023-04-24T09:13:40.153Z,100355.62
2023-04-24T09:14:45.282Z,100353.30
2023-04-24T09:15:46.916Z,100350.52
2023-04-24T09:16:48.814Z,100352.11
2023-04-24T09:17:50.673Z,100350.79
2023-04-24T09:18:52.574Z,100347.89
2023-04-24T09:19:55.967Z,100346.01
2023-04-24T09:21:02.876Z,100346.79
2023-04-24T09:22:09.502Z,100344.67
2023-04-24T09:23:16.468Z,100348.71
2023-04-24T09:24:22.708Z,100343.52
2023-04-24T09:25:34.755Z,100340.89
2023-04-24T09:26:36.980Z,100344.55
2023-04-24T09:27:46.825Z,100339.80
2023-04-24T09:28:48.306Z,100338.66
2023-04-24T09:29:56.972Z,100339.75
2023-04-24T09:31:15.264Z,100338.77
2023-04-24T09:32:22.238Z,100334.23
2023-04-24T09:33:23.705Z,100330.96
2023-04-24T09:34:27.273Z,100327.73
2023-04-24T09:35:28.625Z,100324.95
2023-04-24T09:36:37.446Z,100323.93
2023-04-24T09:37:41.704Z,100322.19
2023-04-24T09:38:43.197Z,100318.41
2023-04-24T09:39:45.135Z,100322.08
2023-04-24T09:40:46.676Z,100321.77
2023-04-24T09:41:53.506Z,100322.91
2023-04-24T09:43:01.403Z,100318.84
2023-04-24T09:44:21.338Z,100315.69
2023-04-24T09:45:28.685Z,100316.21
2023-04-24T09:46:33.934Z,100311.98
2023-04-24T09:47:40.222Z,100311.96
2023-04-24T09:48:41.701Z,100311.53
2023-04-24T09:49:44.198Z,100312.54
2023-04-24T09:50:48.598Z,100309.52
2023-04-24T09:51:50.137Z,100306.48
2023-04-24T09:53:01.635Z,100302.77
2023-04-24T09:54:05.076Z,100302.70
2023-04-24T09:55:12.417Z,100301.37
2023-04-24T09:56:13.943Z,100299.60
2023-04-24T09:57:15.364Z,100299.78
2023-04-24T09:58:16.880Z,100301.14
2023-04-24T09:59:20.187Z,100302.67
2023-04-24T10:00:32.870Z,100305.65
2023-04-24T10:01:34.989Z,100305.99
2023-04-24T10:02:36.631Z,100304.60
2023-04-24T10:03:38.600Z,100305.05
2023-04-24T10:04:40.344Z,100304.47
2023-04-24T10:05:43.799Z,100304.38
2023-04-24T10:06:46.312Z,100296.05
2023-04-24T10:07:49.568Z,100302.55
2023-04-24T10:08:51.735Z,100299.52
2023-04-24T10:09:53.634Z,100297.19
2023-04-24T10:10:55.055Z,100295.88
2023-04-24T10:11:56.503Z,100296.15
2023-04-24T10:12:58.070Z,100293.88
2023-04-24T10:13:59.822Z,100293.23
2023-04-24T10:15:02.201Z,100285.69
2023-04-24T10:16:04.387Z,100287.91
2023-04-24T10:17:06.598Z,100289.66
2023-04-24T10:18:09.751Z,100289.65
2023-04-24T10:19:13.382Z,100290.23
2023-04-24T10:20:14.831Z,100291.85
2023-04-24T10:21:18.354Z,100288.81
2023-04-24T10:22:20.498Z,100285.76
2023-04-24T10:23:22.553Z,100283.20
2023-04-24T10:24:24.159Z,100280.35
2023-04-24T10:25:30.666Z,100280.05
2023-04-24T10:26:32.328Z,100280.74
2023-04-24T10:27:35.052Z,100276.30
2023-04-24T10:28:37.220Z,100277.50
2023-04-24T10:29:40.505Z,100273.44
2023-04-24T10:30:43.352Z,100274.98
2023-04-24T10:31:48.445Z,100279.70
2023-04-24T10:32:50.172Z,100276.28
2023-04-24T10:33:54.224Z,100271.42
2023-04-24T10:34:56.886Z,100272.88
2023-04-24T10:35:59.120Z,100270.97
2023-04-24T10:37:00.670Z,100274.41
2023-04-24T10:38:06.928Z,100272.56
2023-04-24T10:39:11.829Z,100267.52
2023-04-24T10:40:18.610Z,100268.81
2023-04-24T10:41:23.398Z,100268.33
2023-04-24T10:42:27.733Z,100265.23
2023-04-24T10:43:29.389Z,100266.33
2023-04-24T10:44:37.122Z,100260.06
2023-04-24T10:45:39.416Z,100260.10
2023-04-24T10:46:45.785Z,100258.80
2023-04-24T10:48:03.002Z,100259.35
2023-04-24T10:49:08.926Z,100258.05
2023-04-24T10:50:11.196Z,100260.73
2023-04-24T10:51:14.399Z,100259.41
2023-04-24T10:52:16.964Z,100255.16
2023-04-24T10:53:27.197Z,100256.63
2023-04-24T10:54:29.967Z,100254.32
2023-04-24T10:56:05.990Z,100254.88
2023-04-24T10:57:23.050Z,100254.67
2023-04-24T10:58:38.638Z,100251.89
2023-04-24T10:59:40.210Z,100249.05
2023-04-24T11:00:41.967Z,100249.15
2023-04-24T11:01:54.187Z,100248.91
2023-04-24T11:02:56.489Z,100247.69
2023-04-24T11:04:00.105Z,100242.86
2023-04-24T11:05:04.323Z,100244.45
2023-04-24T11:06:07.918Z,100242.11
2023-04-24T11:07:10.541Z,100242.38
2023-04-24T11:08:14.502Z,100247.95
2023-04-24T11:09:16.898Z,100243.09
2023-04-24T11:10:27.526Z,100238.69
2023-04-24T11:11:30.040Z,100241.70
2023-04-24T11:12:35.493Z,100240.13
2023-04-24T11:14:00.281Z,100240.91
2023-04-24T11:15:03.100Z,100243.59
2023-04-24T11:16:26.386Z,100243.77
2023-04-24T11:17:35.386Z,100242.41
2023-04-24T11:18:40.757Z,100245.32
2023-04-24T11:20:48.551Z,100243.92
2023-04-24T11:22:02.782Z,100240.68
2023-04-24T11:23:05.143Z,100240.90
2023-04-24T11:24:25.931Z,100240.12
2023-04-24T11:25:31.183Z,100238.14
2023-04-24T11:26:38.679Z,100233.94
2023-04-24T11:27:42.293Z,100236.10
2023-04-24T11:28:51.000Z,100234.44
2023-04-24T11:29:55.707Z,100232.84
2023-04-24T11:30:57.546Z,100237.60
2023-04-24T11:32:15.266Z,100231.94
2023-04-24T11:33:21.041Z,100234.70
2023-04-24T11:34:23.622Z,100235.69
2023-04-24T11:35:25.556Z,100232.11
2023-04-24T11:36:27.098Z,100228.45
2023-04-24T11:37:39.960Z,100222.36
2023-04-24T11:38:41.999Z,100226.45
2023-04-24T11:39:43.597Z,100223.45
2023-04-24T11:40:46.290Z,100217.63
2023-04-24T11:41:47.980Z,100221.26
2023-04-24T11:42:55.801Z,100217.08
2023-04-24T11:43:58.321Z,100218.44
2023-04-24T11:45:00.718Z,100221.22
2023-04-24T11:46:02.617Z,100221.64
2023-04-24T11:47:06.180Z,100218.48
2023-04-24T11:48:07.848Z,100221.48
2023-04-24T11:49:09.286Z,100218.41
2023-04-24T11:50:15.531Z,100216.73
2023-04-24T11:51:17.091Z,100213.91
2023-04-24T11:52:20.051Z,100213.77
2023-04-24T11:53:22.148Z,100209.36
2023-04-24T11:54:23.617Z,100210.76
2023-04-24T11:55:27.900Z,100206.77
2023-04-24T11:56:29.985Z,100208.96
2023-04-24T11:57:34.903Z,100207.81
2023-04-24T11:58:37.269Z,100204.22
2023-04-24T11:59:38.830Z,100199.33
2023-04-24T12:00:40.318Z,100199.67
2023-04-24T12:01:46.219Z,100194.09
2023-04-24T12:02:49.160Z,100194.92
2023-04-24T12:03:55.304Z,100208.86
2023-04-24T12:04:57.243Z,100209.83
2023-04-24T12:06:10.257Z,100199.10
2023-04-24T12:07:12.238Z,100201.53
2023-04-24T12:08:28.728Z,100197.59